Sarco, Texas
Current Conditions -  °F | °C
As of 6:15 AM on Friday 21 Nov 2014 (Local Time) from KBEA Reporting Station
Overcast Overcast  
Wind Chill: 65°   Ceiling: 4400
Heat Index: 65°   Visibility: 7mi
Dew Point: 65°   Wind: 5mph
Humidity: 100%   Direction: 180°S
Pressure: 30.05"   Gusts: NA
Location:  28.6563°N, 97.4287°W
Report Text: KBEA 211215Z AUTO 18004KT 7SM SCT023 BKN044 OVC049 18/18 A3005 RMK AO2 T01820182
Loading
Personal Weather Stations






























Interactive Weather Map New forecast layout! Learn more

10-Day Weather Forecast

Advertisements
Track Severe Weather on mobile